createdAt,value
2023-11-23T00:00:01.017Z,71.4
2023-11-23T00:05:00.612Z,72.2
2023-11-23T00:10:08.307Z,74.7
2023-11-23T00:15:01.086Z,74.8
2023-11-23T00:20:00.711Z,74.4
2023-11-23T00:25:08.241Z,74.4
2023-11-23T00:30:00.913Z,74.1
2023-11-23T00:35:00.698Z,74.7
2023-11-23T00:40:08.429Z,72.3
2023-11-23T00:45:00.721Z,69.9
2023-11-23T00:50:00.583Z,68.0
2023-11-23T00:55:08.283Z,64.2
2023-11-23T01:00:00.750Z,65.7
2023-11-23T01:05:00.813Z,64.4
2023-11-23T01:10:08.285Z,63.3
2023-11-23T01:15:04.751Z,65.0
2023-11-23T01:20:00.635Z,64.8
2023-11-23T01:25:08.290Z,65.4
2023-11-23T01:30:00.917Z,63.8
2023-11-23T01:35:00.739Z,64.3
2023-11-23T01:40:08.545Z,63.8
2023-11-23T01:45:00.595Z,62.9
2023-11-23T01:50:01.346Z,63.9
2023-11-23T01:55:08.617Z,64.9
2023-11-23T02:00:01.863Z,65.7
2023-11-23T02:05:03.160Z,65.8
2023-11-23T02:10:08.264Z,66.0
2023-11-23T02:15:01.797Z,66.6
2023-11-23T02:20:00.684Z,64.0
2023-11-23T02:25:08.375Z,66.3
2023-11-23T02:30:00.940Z,63.2
2023-11-23T02:35:00.585Z,65.4
2023-11-23T02:40:08.673Z,65.9
2023-11-23T02:45:00.767Z,63.5
2023-11-23T02:50:01.116Z,65.0
2023-11-23T02:55:08.275Z,65.5
2023-11-23T03:00:00.631Z,65.8
2023-11-23T03:05:00.650Z,64.2
2023-11-23T03:10:08.297Z,63.8
2023-11-23T03:15:00.852Z,65.7
2023-11-23T03:20:00.608Z,65.7
2023-11-23T03:25:08.245Z,67.5
2023-11-23T03:30:00.847Z,64.5
2023-11-23T03:35:01.164Z,64.0
2023-11-23T03:40:08.499Z,63.8
2023-11-23T03:45:00.625Z,62.0
2023-11-23T03:50:00.562Z,63.7
2023-11-23T03:55:08.293Z,63.9
2023-11-23T04:00:00.798Z,60.7
2023-11-23T04:05:00.648Z,60.4
2023-11-23T04:10:08.072Z,61.6
2023-11-23T04:15:00.928Z,62.5
2023-11-23T04:20:00.639Z,64.0
2023-11-23T04:25:08.342Z,62.2
2023-11-23T04:30:00.963Z,62.4
2023-11-23T04:35:00.611Z,61.7
2023-11-23T04:40:08.578Z,63.3
2023-11-23T04:45:00.932Z,62.5
2023-11-23T04:50:00.828Z,63.2
2023-11-23T04:55:08.063Z,63.4
2023-11-23T05:00:00.689Z,65.0
2023-11-23T05:05:00.641Z,62.7
2023-11-23T05:10:08.300Z,61.8
2023-11-23T05:15:01.074Z,63.6
2023-11-23T05:20:00.909Z,63.9
2023-11-23T05:25:08.343Z,64.6
2023-11-23T05:30:00.925Z,62.9
2023-11-23T05:35:00.609Z,64.0
2023-11-23T05:40:08.811Z,63.4
2023-11-23T05:45:00.668Z,63.7
2023-11-23T05:50:00.839Z,65.7
2023-11-23T05:55:08.312Z,65.2
2023-11-23T06:00:00.690Z,65.2
2023-11-23T06:05:00.735Z,65.5
2023-11-23T06:10:08.328Z,65.8
2023-11-23T06:15:00.686Z,64.7
2023-11-23T06:20:00.948Z,63.6
2023-11-23T06:25:08.312Z,63.3
2023-11-23T06:30:00.904Z,64.4
2023-11-23T06:35:00.772Z,65.5
2023-11-23T06:40:08.555Z,66.4
2023-11-23T06:45:00.742Z,64.8
2023-11-23T06:50:00.593Z,63.4
2023-11-23T06:55:08.589Z,63.5
2023-11-23T07:00:00.632Z,64.1
2023-11-23T07:05:00.589Z,64.8
2023-11-23T07:10:08.225Z,64.0
2023-11-23T07:15:00.661Z,65.4
2023-11-23T07:20:00.818Z,65.1
2023-11-23T07:25:08.184Z,66.8
2023-11-23T07:30:00.820Z,64.6
2023-11-23T07:40:08.556Z,64.3
2023-11-23T07:45:00.682Z,64.0
2023-11-23T07:50:00.879Z,65.5
2023-11-23T08:00:08.471Z,64.1
2023-11-23T08:05:00.656Z,66.1
2023-11-23T08:10:00.935Z,66.8
2023-11-23T08:15:08.610Z,66.1
2023-11-23T08:20:00.585Z,62.8
2023-11-23T08:25:01.137Z,64.6
2023-11-23T08:30:08.806Z,64.5
2023-11-23T08:35:00.624Z,63.4
2023-11-23T08:40:00.575Z,62.9
2023-11-23T08:45:08.762Z,64.9
2023-11-23T08:50:00.656Z,63.2
2023-11-23T08:55:00.781Z,62.0
2023-11-23T09:00:08.558Z,62.5
2023-11-23T09:05:00.797Z,62.8
2023-11-23T09:10:00.607Z,64.0
2023-11-23T09:15:09.379Z,63.2
2023-11-23T09:20:00.919Z,63.3
2023-11-23T09:25:00.610Z,63.6
2023-11-23T09:30:08.765Z,63.5
2023-11-23T09:35:00.624Z,65.1
2023-11-23T09:40:00.584Z,64.2
2023-11-23T09:45:11.020Z,63.9
2023-11-23T09:50:01.950Z,63.6
2023-11-23T09:55:03.314Z,64.6
2023-11-23T10:00:08.557Z,62.2
2023-11-23T10:05:00.609Z,63.2
2023-11-23T10:10:00.771Z,64.0
2023-11-23T10:15:09.350Z,64.5
2023-11-23T10:20:09.441Z,62.0
2023-11-23T10:25:00.827Z,62.5
2023-11-23T10:30:08.499Z,61.8
2023-11-23T10:35:05.742Z,63.5
2023-11-23T10:40:01.623Z,61.8
2023-11-23T10:45:08.743Z,62.5
2023-11-23T10:50:01.660Z,63.0
2023-11-23T10:55:01.236Z,62.7
2023-11-23T11:00:09.027Z,60.7
2023-11-23T11:05:00.813Z,61.4
2023-11-23T11:10:04.963Z,62.3
2023-11-23T11:15:08.429Z,64.4
2023-11-23T11:20:04.589Z,64.5
2023-11-23T11:30:12.028Z,67.8
2023-11-23T11:35:01.507Z,73.5
2023-11-23T11:40:00.832Z,71.7
2023-11-23T11:45:09.055Z,77.3
2023-11-23T11:50:00.742Z,79.5
2023-11-23T11:55:00.680Z,78.5
2023-11-23T12:00:08.498Z,80.4
2023-11-23T12:05:00.632Z,78.5
2023-11-23T12:10:00.871Z,82.5
2023-11-23T12:15:08.729Z,80.8
2023-11-23T12:20:00.896Z,83.6
2023-11-23T12:25:05.390Z,83.0
2023-11-23T12:30:08.395Z,82.7
2023-11-23T12:35:00.630Z,84.4
2023-11-23T12:40:00.606Z,82.8
2023-11-23T12:45:08.422Z,83.3
2023-11-23T12:50:01.372Z,83.0
2023-11-23T12:55:00.565Z,81.6
2023-11-23T13:00:08.342Z,82.9
2023-11-23T13:05:00.604Z,83.3
2023-11-23T13:10:00.622Z,83.3
2023-11-23T13:15:08.669Z,82.9
2023-11-23T13:20:00.714Z,83.1
2023-11-23T13:25:00.803Z,83.5
2023-11-23T13:30:08.536Z,81.8
2023-11-23T13:35:00.623Z,83.4
2023-11-23T13:40:00.844Z,84.9
2023-11-23T13:45:08.485Z,84.1
2023-11-23T13:50:00.640Z,84.3
2023-11-23T13:55:00.863Z,82.9
2023-11-23T14:00:08.511Z,84.0
2023-11-23T14:05:00.625Z,83.7
2023-11-23T14:10:00.851Z,84.2
2023-11-23T14:15:08.433Z,83.7
2023-11-23T14:20:00.962Z,83.3
2023-11-23T14:25:00.940Z,82.8
2023-11-23T14:30:08.838Z,84.0
2023-11-23T14:35:00.617Z,83.1
2023-11-23T14:40:00.595Z,84.4
2023-11-23T14:45:08.620Z,84.3
2023-11-23T14:50:00.711Z,84.3
2023-11-23T14:55:00.861Z,83.9
2023-11-23T15:00:08.548Z,83.5
2023-11-23T15:05:00.994Z,83.7
2023-11-23T15:10:00.613Z,81.6
2023-11-23T15:15:08.488Z,83.0
2023-11-23T15:20:00.639Z,80.9
2023-11-23T15:25:08.210Z,80.4
2023-11-23T15:30:08.295Z,80.1
2023-11-23T15:35:00.839Z,81.5
2023-11-23T15:40:00.604Z,78.4
2023-11-23T15:45:08.523Z,78.6
2023-11-23T15:50:00.707Z,80.3
2023-11-23T15:55:00.646Z,79.8
2023-11-23T16:00:08.714Z,79.7
2023-11-23T16:05:00.672Z,80.4
2023-11-23T16:10:00.596Z,78.0
2023-11-23T16:15:08.495Z,76.4
2023-11-23T16:20:00.688Z,76.7
2023-11-23T16:25:00.601Z,76.7
2023-11-23T16:30:08.909Z,76.2
2023-11-23T16:35:00.650Z,77.0
2023-11-23T16:40:00.582Z,78.3
2023-11-23T16:45:08.795Z,77.5
2023-11-23T16:50:01.350Z,77.9
2023-11-23T16:55:00.832Z,78.5
2023-11-23T17:00:08.528Z,78.9
2023-11-23T17:05:01.666Z,78.6
2023-11-23T17:10:00.594Z,77.8
2023-11-23T17:15:08.628Z,79.0
2023-11-23T17:20:00.893Z,79.6
2023-11-23T17:25:00.588Z,81.3
2023-11-23T17:30:08.659Z,79.2
2023-11-23T17:35:00.936Z,78.2
2023-11-23T17:40:00.608Z,80.7
2023-11-23T17:45:08.505Z,81.0
2023-11-23T17:50:00.905Z,79.4
2023-11-23T17:55:00.569Z,79.8
2023-11-23T18:00:08.652Z,81.3
2023-11-23T18:05:00.870Z,79.9
2023-11-23T18:10:00.579Z,80.2
2023-11-23T18:15:08.668Z,80.8
2023-11-23T18:20:00.880Z,80.0
2023-11-23T18:25:00.565Z,80.6
2023-11-23T18:30:08.829Z,79.9
2023-11-23T18:35:00.628Z,79.1
2023-11-23T18:40:00.700Z,78.7
2023-11-23T18:45:08.956Z,80.7
2023-11-23T18:50:00.704Z,81.0
2023-11-23T18:55:00.630Z,79.8
2023-11-23T19:00:08.951Z,80.2
2023-11-23T19:05:00.693Z,80.9
2023-11-23T19:10:00.637Z,79.6
2023-11-23T19:15:08.478Z,80.9
2023-11-23T19:20:00.893Z,80.0
2023-11-23T19:25:00.849Z,79.9
2023-11-23T19:30:08.989Z,79.9
2023-11-23T19:35:01.269Z,79.7
2023-11-23T19:40:00.916Z,81.8
2023-11-23T19:45:08.755Z,82.4
2023-11-23T19:50:01.053Z,84.4
2023-11-23T19:55:00.670Z,86.7
2023-11-23T20:00:08.806Z,87.5
2023-11-23T20:05:01.073Z,87.4
2023-11-23T20:10:00.657Z,88.4
2023-11-23T20:15:08.419Z,89.1
2023-11-23T20:20:00.631Z,88.7
2023-11-23T20:25:00.666Z,89.0
2023-11-23T20:30:08.702Z,89.3
2023-11-23T20:35:00.617Z,89.6
2023-11-23T20:40:00.671Z,91.0
2023-11-23T20:45:08.583Z,90.6
2023-11-23T20:50:00.878Z,90.7
2023-11-23T20:55:00.998Z,90.2
2023-11-23T21:00:11.314Z,90.6
2023-11-23T21:05:01.023Z,90.3
2023-11-23T21:10:01.296Z,89.8
2023-11-23T21:15:08.365Z,89.1
2023-11-23T21:20:00.890Z,89.5
2023-11-23T21:25:00.929Z,89.6
2023-11-23T21:30:08.792Z,89.2
2023-11-23T21:35:00.858Z,89.3
2023-11-23T21:40:00.603Z,88.9
2023-11-23T21:45:08.346Z,87.4
2023-11-23T21:50:00.848Z,88.1
2023-11-23T21:55:04.031Z,87.2
2023-11-23T22:00:08.384Z,87.4
2023-11-23T22:05:00.656Z,86.8
2023-11-23T22:10:00.614Z,86.8
2023-11-23T22:15:08.452Z,86.7
2023-11-23T22:20:00.961Z,86.2
2023-11-23T22:25:00.954Z,86.8
2023-11-23T22:30:08.587Z,87.2
2023-11-23T22:35:01.089Z,87.1
2023-11-23T22:40:00.987Z,87.2
2023-11-23T22:45:08.624Z,87.6
2023-11-23T22:50:00.679Z,88.8
2023-11-23T22:55:00.672Z,88.9
2023-11-23T23:00:08.829Z,89.6
2023-11-23T23:10:00.684Z,89.5
2023-11-23T23:15:08.540Z,89.4
2023-11-23T23:20:00.671Z,89.4
2023-11-23T23:25:00.727Z,89.8
2023-11-23T23:30:08.944Z,89.7
2023-11-23T23:35:00.636Z,89.4
2023-11-23T23:40:00.633Z,88.9
2023-11-23T23:45:08.349Z,88.7
2023-11-23T23:50:01.085Z,87.9
2023-11-23T23:55:00.760Z,87.8
